createdAt,value
2018-07-14T00:05:23.498Z,27.3
2018-07-14T00:15:22.736Z,27.3
2018-07-14T00:25:21.974Z,27.3
2018-07-14T00:35:21.210Z,27.3
2018-07-14T00:45:20.453Z,27.3
2018-07-14T00:55:19.688Z,27.3
2018-07-14T01:05:18.928Z,27.3
2018-07-14T01:15:18.160Z,27.3
2018-07-14T01:25:17.399Z,27.3
2018-07-14T01:35:16.634Z,27.3
2018-07-14T01:45:15.873Z,27.3
2018-07-14T01:55:15.108Z,27.2
2018-07-14T02:05:14.344Z,27.3
2018-07-14T02:15:13.582Z,27.3
2018-07-14T02:25:12.818Z,27.3
2018-07-14T02:35:12.056Z,27.3
2018-07-14T02:45:11.300Z,27.3
2018-07-14T02:55:10.530Z,27.2
2018-07-14T03:05:09.765Z,27.2
2018-07-14T03:15:09.004Z,27.2
2018-07-14T03:25:08.237Z,27.2
2018-07-14T03:35:07.484Z,27.1
2018-07-14T03:45:06.714Z,27.2
2018-07-14T03:55:05.951Z,27.1
2018-07-14T04:05:05.182Z,27.1
2018-07-14T04:15:04.418Z,27.2
2018-07-14T04:25:03.654Z,27.2
2018-07-14T04:35:02.896Z,27.2
2018-07-14T04:45:02.126Z,27.2
2018-07-14T04:55:01.362Z,27.1
2018-07-14T05:05:00.601Z,27.2
2018-07-14T05:14:59.840Z,27.2
2018-07-14T05:24:59.074Z,27.1
2018-07-14T05:34:58.312Z,27.1
2018-07-14T05:44:57.552Z,27.1
2018-07-14T05:54:56.789Z,27.1
2018-07-14T06:04:56.080Z,27.1
2018-07-14T06:14:55.269Z,27.1
2018-07-14T06:24:54.511Z,27.1
2018-07-14T06:34:53.749Z,27.1
2018-07-14T06:44:52.993Z,27.2
2018-07-14T06:54:52.274Z,27.2
2018-07-14T07:04:51.463Z,27.1
2018-07-14T07:14:50.708Z,26.9
2018-07-14T07:24:49.944Z,26.8
2018-07-14T07:34:49.185Z,26.7
2018-07-14T07:44:48.425Z,26.7
2018-07-14T07:54:47.665Z,26.7
2018-07-14T08:04:46.905Z,26.8
2018-07-14T08:14:46.146Z,26.8
2018-07-14T08:24:45.385Z,26.8
2018-07-14T08:34:44.632Z,26.8
2018-07-14T08:44:43.865Z,26.8
2018-07-14T08:54:43.104Z,26.8
2018-07-14T09:04:42.348Z,26.7
2018-07-14T09:14:41.581Z,26.6
2018-07-14T09:24:40.818Z,26.6
2018-07-14T09:34:40.060Z,26.6
2018-07-14T09:44:39.397Z,26.6
2018-07-14T09:54:38.551Z,26.6
2018-07-14T10:04:37.784Z,26.8
2018-07-14T10:14:37.024Z,26.7
2018-07-14T10:24:36.265Z,26.7
2018-07-14T10:34:35.507Z,26.7
2018-07-14T10:44:34.748Z,26.6
2018-07-14T10:54:33.987Z,26.6
2018-07-14T11:04:33.234Z,26.6
2018-07-14T11:14:32.469Z,26.6
2018-07-14T11:24:31.708Z,26.6
2018-07-14T11:34:30.966Z,26.6
2018-07-14T11:44:30.188Z,26.6
2018-07-14T11:54:29.428Z,26.6
2018-07-14T12:04:28.667Z,26.7
2018-07-14T12:14:27.907Z,26.7
2018-07-14T12:24:27.149Z,26.8
2018-07-14T12:34:26.387Z,26.9
2018-07-14T12:44:25.626Z,27.1
2018-07-14T12:54:24.874Z,27.1
2018-07-14T13:04:24.107Z,27.1
2018-07-14T13:14:23.345Z,27.1
2018-07-14T13:24:22.591Z,27
2018-07-14T13:34:21.877Z,27
2018-07-14T13:44:21.064Z,27.1
2018-07-14T13:54:20.300Z,27.1
2018-07-14T14:04:19.539Z,27.1
2018-07-14T14:14:18.782Z,27.2
2018-07-14T14:24:18.019Z,27.2
2018-07-14T14:34:17.263Z,27.3
2018-07-14T14:44:16.497Z,27.3
2018-07-14T14:54:15.738Z,27.2
2018-07-14T15:04:14.977Z,27.1
2018-07-14T15:14:14.216Z,27.1
2018-07-14T15:24:13.457Z,27.1
2018-07-14T15:34:12.696Z,27
2018-07-14T15:44:11.936Z,27
2018-07-14T15:54:11.181Z,26.9
2018-07-14T16:04:10.416Z,26.9
2018-07-14T16:14:09.657Z,26.9
2018-07-14T16:24:08.898Z,26.9
2018-07-14T16:34:08.185Z,27.3
2018-07-14T16:44:07.374Z,27.4
2018-07-14T16:54:06.613Z,27.3
2018-07-14T17:04:05.854Z,27.3
2018-07-14T17:14:05.242Z,27.2
2018-07-14T17:24:04.333Z,27.1
2018-07-14T17:34:03.568Z,27
2018-07-14T17:44:02.812Z,26.9
2018-07-14T17:54:02.051Z,26.9
2018-07-14T18:04:01.292Z,26.9
2018-07-14T18:14:00.540Z,26.8
2018-07-14T18:23:59.773Z,26.8
2018-07-14T18:33:59.013Z,26.7
2018-07-14T18:43:58.304Z,26.6
2018-07-14T18:53:57.493Z,26.6
2018-07-14T19:03:56.735Z,26.6
2018-07-14T19:13:55.980Z,26.5
2018-07-14T19:23:55.229Z,26.5
2018-07-14T19:33:54.457Z,26.6
2018-07-14T19:43:53.702Z,26.7
2018-07-14T19:53:52.938Z,26.8
2018-07-14T20:03:52.179Z,26.9
2018-07-14T20:13:51.416Z,27
2018-07-14T20:23:50.659Z,27.1
2018-07-14T20:33:49.900Z,27.2
2018-07-14T20:43:49.139Z,27.2
2018-07-14T20:53:48.377Z,27.2
2018-07-14T21:03:47.617Z,27.2
2018-07-14T21:13:46.859Z,27.3
2018-07-14T21:23:46.096Z,27.3
2018-07-14T21:33:45.335Z,27.3
2018-07-14T21:43:44.572Z,27.3
2018-07-14T21:53:43.812Z,27.3
2018-07-14T22:03:43.051Z,27.3
2018-07-14T22:13:42.290Z,27.3
2018-07-14T22:23:41.528Z,27.3
2018-07-14T22:33:40.782Z,27.3
2018-07-14T22:43:40.006Z,27.3
2018-07-14T22:53:39.243Z,27.3
2018-07-14T23:03:38.489Z,27.3
2018-07-14T23:13:37.723Z,27.3
2018-07-14T23:23:37.009Z,27.3
2018-07-14T23:33:36.195Z,27.3
2018-07-14T23:43:35.435Z,27.3
2018-07-14T23:53:34.678Z,27.3
